sensor_id;sensor_type;location;lat;lon;timestamp;noise_LAeq;noise_LA_min;noise_LA_max;noise_LA01;noise_LA95
66888;Laerm;53798;51.680;5.976;2022-12-15T00:02:37;39.69;36.65;46.62;;
66888;Laerm;53798;51.680;5.976;2022-12-15T00:05:24;40.04;36.00;52.46;;
66888;Laerm;53798;51.680;5.976;2022-12-15T00:08:15;52.85;37.79;70.99;;
66888;Laerm;53798;51.680;5.976;2022-12-15T00:11:02;40.66;36.64;54.08;;
66888;Laerm;53798;51.680;5.976;2022-12-15T00:13:49;40.50;36.56;49.87;;
66888;Laerm;53798;51.680;5.976;2022-12-15T00:16:35;40.74;36.47;52.78;;
66888;Laerm;53798;51.680;5.976;2022-12-15T00:19:21;39.80;36.30;46.97;;
66888;Laerm;53798;51.680;5.976;2022-12-15T00:22:07;60.93;36.07;81.12;;
66888;Laerm;53798;51.680;5.976;2022-12-15T00:24:53;59.75;36.24;78.99;;
66888;Laerm;53798;51.680;5.976;2022-12-15T00:27:38;41.32;36.61;51.67;;
66888;Laerm;53798;51.680;5.976;2022-12-15T00:30:24;64.75;36.41;84.72;;
66888;Laerm;53798;51.680;5.976;2022-12-15T00:33:16;40.16;35.89;56.35;;
66888;Laerm;53798;51.680;5.976;2022-12-15T00:36:01;39.05;35.51;44.02;;
66888;Laerm;53798;51.680;5.976;2022-12-15T00:38:47;38.85;34.83;60.27;;
66888;Laerm;53798;51.680;5.976;2022-12-15T00:41:16;38.88;34.89;49.75;;
66888;Laerm;53798;51.680;5.976;2022-12-15T00:43:44;39.52;35.83;51.82;;
66888;Laerm;53798;51.680;5.976;2022-12-15T00:46:13;42.47;36.50;60.80;;
66888;Laerm;53798;51.680;5.976;2022-12-15T00:49:00;64.11;35.95;84.31;;
66888;Laerm;53798;51.680;5.976;2022-12-15T00:51:27;38.01;34.74;47.21;;
66888;Laerm;53798;51.680;5.976;2022-12-15T00:54:12;60.74;35.02;79.54;;
66888;Laerm;53798;51.680;5.976;2022-12-15T00:56:58;38.35;33.96;63.14;;
66888;Laerm;53798;51.680;5.976;2022-12-15T00:59:44;38.47;35.00;46.27;;
66888;Laerm;53798;51.680;5.976;2022-12-15T01:02:29;38.94;35.13;44.50;;
66888;Laerm;53798;51.680;5.976;2022-12-15T01:05:16;38.81;35.35;52.05;;
66888;Laerm;53798;51.680;5.976;2022-12-15T01:08:01;39.42;35.54;50.58;;
66888;Laerm;53798;51.680;5.976;2022-12-15T01:10:48;40.14;34.78;57.54;;
66888;Laerm;53798;51.680;5.976;2022-12-15T01:13:36;38.50;34.78;49.81;;
66888;Laerm;53798;51.680;5.976;2022-12-15T01:16:22;38.45;34.04;50.71;;
66888;Laerm;53798;51.680;5.976;2022-12-15T01:19:08;38.00;34.36;45.68;;
66888;Laerm;53798;51.680;5.976;2022-12-15T01:21:53;38.82;35.27;48.00;;
66888;Laerm;53798;51.680;5.976;2022-12-15T01:24:21;38.35;34.69;56.10;;
66888;Laerm;53798;51.680;5.976;2022-12-15T01:26:48;37.69;34.56;45.00;;
66888;Laerm;53798;51.680;5.976;2022-12-15T01:29:15;37.84;34.46;50.41;;
66888;Laerm;53798;51.680;5.976;2022-12-15T01:31:42;38.51;34.30;48.51;;
66888;Laerm;53798;51.680;5.976;2022-12-15T01:34:10;38.30;34.35;47.53;;
66888;Laerm;53798;51.680;5.976;2022-12-15T01:36:37;61.18;34.90;79.86;;
66888;Laerm;53798;51.680;5.976;2022-12-15T01:39:04;61.41;34.18;81.22;;
66888;Laerm;53798;51.680;5.976;2022-12-15T01:41:31;42.51;35.06;56.23;;
66888;Laerm;53798;51.680;5.976;2022-12-15T01:44:23;37.88;34.87;43.08;;
66888;Laerm;53798;51.680;5.976;2022-12-15T01:46:54;37.94;34.61;45.22;;
66888;Laerm;53798;51.680;5.976;2022-12-15T01:49:31;38.40;34.20;44.37;;
66888;Laerm;53798;51.680;5.976;2022-12-15T01:52:01;38.20;34.95;48.43;;
66888;Laerm;53798;51.680;5.976;2022-12-15T01:54:54;38.60;34.05;53.40;;
66888;Laerm;53798;51.680;5.976;2022-12-15T01:57:31;38.90;34.18;45.94;;
66888;Laerm;53798;51.680;5.976;2022-12-15T02:00:04;40.74;34.76;48.42;;
66888;Laerm;53798;51.680;5.976;2022-12-15T02:02:34;62.08;37.66;80.57;;
66888;Laerm;53798;51.680;5.976;2022-12-15T02:05:07;38.87;35.61;43.40;;
66888;Laerm;53798;51.680;5.976;2022-12-15T02:07:34;38.52;35.32;43.83;;
66888;Laerm;53798;51.680;5.976;2022-12-15T02:10:04;37.09;34.25;44.60;;
66888;Laerm;53798;51.680;5.976;2022-12-15T02:21:25;41.55;35.79;49.81;;
66888;Laerm;53798;51.680;5.976;2022-12-15T02:27:14;50.33;35.59;71.25;;
66888;Laerm;53798;51.680;5.976;2022-12-15T02:30:15;37.99;34.84;43.01;;
66888;Laerm;53798;51.680;5.976;2022-12-15T02:32:57;40.52;35.51;47.93;;
66888;Laerm;53798;51.680;5.976;2022-12-15T02:38:37;40.35;35.57;48.93;;
66888;Laerm;53798;51.680;5.976;2022-12-15T02:41:39;38.34;34.51;46.96;;
66888;Laerm;53798;51.680;5.976;2022-12-15T02:44:15;38.57;35.18;45.47;;
66888;Laerm;53798;51.680;5.976;2022-12-15T02:49:59;39.82;35.71;46.96;;
66888;Laerm;53798;51.680;5.976;2022-12-15T02:55:59;38.34;35.06;44.12;;
66888;Laerm;53798;51.680;5.976;2022-12-15T02:58:57;38.96;35.04;46.89;;
66888;Laerm;53798;51.680;5.976;2022-12-15T03:01:57;64.34;35.46;84.17;;
66888;Laerm;53798;51.680;5.976;2022-12-15T03:04:26;59.42;36.95;78.87;;
66888;Laerm;53798;51.680;5.976;2022-12-15T03:06:56;40.56;36.09;49.24;;
66888;Laerm;53798;51.680;5.976;2022-12-15T03:09:27;58.70;35.59;80.11;;
66888;Laerm;53798;51.680;5.976;2022-12-15T03:11:54;56.35;36.28;78.21;;
66888;Laerm;53798;51.680;5.976;2022-12-15T03:14:22;40.88;37.16;47.99;;
66888;Laerm;53798;51.680;5.976;2022-12-15T03:16:52;40.51;36.39;45.96;;
66888;Laerm;53798;51.680;5.976;2022-12-15T03:19:20;40.54;36.66;45.66;;
66888;Laerm;53798;51.680;5.976;2022-12-15T03:21:47;41.94;37.36;50.05;;
66888;Laerm;53798;51.680;5.976;2022-12-15T03:24:14;42.39;37.39;51.35;;
66888;Laerm;53798;51.680;5.976;2022-12-15T03:26:42;56.03;36.83;73.01;;
66888;Laerm;53798;51.680;5.976;2022-12-15T03:29:09;40.97;36.88;49.80;;
66888;Laerm;53798;51.680;5.976;2022-12-15T03:31:36;39.78;35.78;49.81;;
66888;Laerm;53798;51.680;5.976;2022-12-15T03:34:03;40.63;36.77;47.25;;
66888;Laerm;53798;51.680;5.976;2022-12-15T03:36:31;42.96;37.52;56.03;;
66888;Laerm;53798;51.680;5.976;2022-12-15T03:38:58;42.59;37.14;56.86;;
66888;Laerm;53798;51.680;5.976;2022-12-15T03:41:25;59.07;37.53;74.85;;
66888;Laerm;53798;51.680;5.976;2022-12-15T03:43:52;62.10;37.54;77.91;;
66888;Laerm;53798;51.680;5.976;2022-12-15T03:46:19;55.23;37.05;72.78;;
66888;Laerm;53798;51.680;5.976;2022-12-15T03:48:46;53.34;36.53;69.45;;
66888;Laerm;53798;51.680;5.976;2022-12-15T03:51:13;43.84;36.62;57.81;;
66888;Laerm;53798;51.680;5.976;2022-12-15T03:53:40;40.36;35.64;47.31;;
66888;Laerm;53798;51.680;5.976;2022-12-15T03:56:07;41.09;37.11;46.99;;
66888;Laerm;53798;51.680;5.976;2022-12-15T03:58:34;65.70;37.59;80.06;;
66888;Laerm;53798;51.680;5.976;2022-12-15T04:01:20;45.71;37.61;63.62;;
66888;Laerm;53798;51.680;5.976;2022-12-15T04:03:49;59.28;37.98;77.91;;
66888;Laerm;53798;51.680;5.976;2022-12-15T04:06:20;54.10;38.79;70.65;;
66888;Laerm;53798;51.680;5.976;2022-12-15T04:08:48;42.32;37.66;56.15;;
66888;Laerm;53798;51.680;5.976;2022-12-15T04:11:17;66.18;38.66;80.32;;
66888;Laerm;53798;51.680;5.976;2022-12-15T04:13:44;58.45;38.46;75.90;;
66888;Laerm;53798;51.680;5.976;2022-12-15T04:16:11;49.13;40.25;66.31;;
66888;Laerm;53798;51.680;5.976;2022-12-15T04:18:47;45.05;40.99;53.49;;
66888;Laerm;53798;51.680;5.976;2022-12-15T04:21:37;62.87;41.54;79.04;;
66888;Laerm;53798;51.680;5.976;2022-12-15T04:24:04;63.51;41.86;80.13;;
66888;Laerm;53798;51.680;5.976;2022-12-15T04:26:50;58.85;41.81;77.94;;
66888;Laerm;53798;51.680;5.976;2022-12-15T04:29:36;64.69;42.04;81.31;;
66888;Laerm;53798;51.680;5.976;2022-12-15T04:32:22;60.48;42.25;76.67;;
66888;Laerm;53798;51.680;5.976;2022-12-15T04:35:10;66.87;42.72;79.18;;
66888;Laerm;53798;51.680;5.976;2022-12-15T04:37:56;64.44;42.77;81.53;;
66888;Laerm;53798;51.680;5.976;2022-12-15T04:40:42;67.30;45.39;80.74;;
66888;Laerm;53798;51.680;5.976;2022-12-15T04:43:28;66.15;43.59;83.57;;
66888;Laerm;53798;51.680;5.976;2022-12-15T04:46:14;66.83;43.08;83.92;;
66888;Laerm;53798;51.680;5.976;2022-12-15T04:49:00;68.37;42.14;83.88;;
66888;Laerm;53798;51.680;5.976;2022-12-15T04:51:46;70.19;43.30;83.90;;
66888;Laerm;53798;51.680;5.976;2022-12-15T04:54:38;66.62;41.59;80.43;;
66888;Laerm;53798;51.680;5.976;2022-12-15T04:57:23;62.56;40.83;77.59;;
66888;Laerm;53798;51.680;5.976;2022-12-15T05:00:09;61.76;41.27;76.37;;
66888;Laerm;53798;51.680;5.976;2022-12-15T05:02:55;63.34;41.63;78.11;;
66888;Laerm;53798;51.680;5.976;2022-12-15T05:05:44;61.77;42.52;77.84;;
66888;Laerm;53798;51.680;5.976;2022-12-15T05:08:30;71.59;44.62;86.12;;
66888;Laerm;53798;51.680;5.976;2022-12-15T05:11:16;63.35;41.74;80.73;;
66888;Laerm;53798;51.680;5.976;2022-12-15T05:14:05;64.23;40.89;81.57;;
66888;Laerm;53798;51.680;5.976;2022-12-15T05:16:51;58.78;41.37;77.03;;
66888;Laerm;53798;51.680;5.976;2022-12-15T05:19:37;67.13;44.43;83.02;;
66888;Laerm;53798;51.680;5.976;2022-12-15T05:22:23;65.54;45.96;79.54;;
66888;Laerm;53798;51.680;5.976;2022-12-15T05:25:08;68.03;44.65;83.75;;
66888;Laerm;53798;51.680;5.976;2022-12-15T05:27:54;69.01;43.06;85.57;;
66888;Laerm;53798;51.680;5.976;2022-12-15T05:30:40;68.82;43.56;82.60;;
66888;Laerm;53798;51.680;5.976;2022-12-15T05:33:26;69.09;45.72;81.96;;
66888;Laerm;53798;51.680;5.976;2022-12-15T05:35:56;66.92;43.82;84.31;;
66888;Laerm;53798;51.680;5.976;2022-12-15T05:38:24;69.04;45.03;84.61;;
66888;Laerm;53798;51.680;5.976;2022-12-15T05:40:51;67.71;44.68;82.35;;
66888;Laerm;53798;51.680;5.976;2022-12-15T05:43:18;66.95;46.86;79.09;;
66888;Laerm;53798;51.680;5.976;2022-12-15T05:45:52;71.52;47.51;85.59;;
66888;Laerm;53798;51.680;5.976;2022-12-15T05:48:22;65.26;46.60;80.96;;
66888;Laerm;53798;51.680;5.976;2022-12-15T05:50:50;68.22;46.67;81.39;;
66888;Laerm;53798;51.680;5.976;2022-12-15T05:53:17;71.40;49.46;82.89;;
66888;Laerm;53798;51.680;5.976;2022-12-15T05:55:44;69.24;44.32;84.51;;
66888;Laerm;53798;51.680;5.976;2022-12-15T05:58:11;69.65;48.83;83.22;;
66888;Laerm;53798;51.680;5.976;2022-12-15T06:00:38;70.19;47.32;82.41;;
66888;Laerm;53798;51.680;5.976;2022-12-15T06:03:05;72.39;47.21;85.51;;
66888;Laerm;53798;51.680;5.976;2022-12-15T06:05:33;67.99;45.13;81.35;;
66888;Laerm;53798;51.680;5.976;2022-12-15T06:08:00;69.20;44.88;84.29;;
66888;Laerm;53798;51.680;5.976;2022-12-15T06:10:27;69.38;44.14;82.83;;
66888;Laerm;53798;51.680;5.976;2022-12-15T06:12:54;66.39;44.81;79.96;;
66888;Laerm;53798;51.680;5.976;2022-12-15T06:15:21;69.45;47.94;81.09;;
66888;Laerm;53798;51.680;5.976;2022-12-15T06:17:48;65.90;44.44;78.41;;
66888;Laerm;53798;51.680;5.976;2022-12-15T06:20:15;68.81;44.27;83.92;;
66888;Laerm;53798;51.680;5.976;2022-12-15T06:22:43;70.84;50.34;81.89;;
66888;Laerm;53798;51.680;5.976;2022-12-15T06:25:17;68.73;46.88;82.61;;
66888;Laerm;53798;51.680;5.976;2022-12-15T06:27:44;71.51;49.07;84.99;;
66888;Laerm;53798;51.680;5.976;2022-12-15T06:30:11;68.32;48.15;82.00;;
66888;Laerm;53798;51.680;5.976;2022-12-15T06:32:39;72.16;44.96;88.94;;
66888;Laerm;53798;51.680;5.976;2022-12-15T06:35:06;66.29;47.63;81.17;;
66888;Laerm;53798;51.680;5.976;2022-12-15T06:37:34;69.77;47.04;80.43;;
66888;Laerm;53798;51.680;5.976;2022-12-15T06:40:01;71.09;47.10;84.61;;
66888;Laerm;53798;51.680;5.976;2022-12-15T06:42:28;70.29;45.53;83.77;;
66888;Laerm;53798;51.680;5.976;2022-12-15T06:44:56;69.60;45.83;82.80;;
66888;Laerm;53798;51.680;5.976;2022-12-15T06:47:26;68.60;44.75;80.25;;
66888;Laerm;53798;51.680;5.976;2022-12-15T06:49:54;70.59;46.40;84.90;;
66888;Laerm;53798;51.680;5.976;2022-12-15T06:52:21;70.53;48.70;84.83;;
66888;Laerm;53798;51.680;5.976;2022-12-15T06:54:48;70.77;49.77;82.88;;
66888;Laerm;53798;51.680;5.976;2022-12-15T06:57:15;72.01;50.89;82.32;;
66888;Laerm;53798;51.680;5.976;2022-12-15T06:59:42;69.81;46.92;81.60;;
66888;Laerm;53798;51.680;5.976;2022-12-15T07:02:16;72.63;49.71;84.11;;
66888;Laerm;53798;51.680;5.976;2022-12-15T07:04:49;69.78;47.69;83.93;;
66888;Laerm;53798;51.680;5.976;2022-12-15T07:07:17;73.18;53.54;84.26;;
66888;Laerm;53798;51.680;5.976;2022-12-15T07:09:44;71.10;46.60;83.11;;
66888;Laerm;53798;51.680;5.976;2022-12-15T07:12:11;71.59;51.01;81.22;;
66888;Laerm;53798;51.680;5.976;2022-12-15T07:14:38;70.28;48.27;81.77;;
66888;Laerm;53798;51.680;5.976;2022-12-15T07:17:05;68.90;47.68;81.63;;
66888;Laerm;53798;51.680;5.976;2022-12-15T07:19:36;70.35;49.61;82.34;;
66888;Laerm;53798;51.680;5.976;2022-12-15T07:22:03;71.06;45.78;82.74;;
66888;Laerm;53798;51.680;5.976;2022-12-15T07:24:30;72.45;49.66;85.60;;
66888;Laerm;53798;51.680;5.976;2022-12-15T07:26:57;72.57;49.01;82.31;;
66888;Laerm;53798;51.680;5.976;2022-12-15T07:29:24;72.46;48.14;84.64;;
66888;Laerm;53798;51.680;5.976;2022-12-15T07:31:51;71.71;47.65;83.33;;
66888;Laerm;53798;51.680;5.976;2022-12-15T07:34:19;72.43;48.95;82.58;;
66888;Laerm;53798;51.680;5.976;2022-12-15T07:36:46;69.89;45.38;81.64;;
66888;Laerm;53798;51.680;5.976;2022-12-15T07:39:18;71.69;48.87;82.09;;
66888;Laerm;53798;51.680;5.976;2022-12-15T07:41:46;65.87;44.38;78.01;;
66888;Laerm;53798;51.680;5.976;2022-12-15T07:44:16;69.91;45.70;81.81;;
66888;Laerm;53798;51.680;5.976;2022-12-15T07:46:43;70.92;46.31;84.27;;
66888;Laerm;53798;51.680;5.976;2022-12-15T07:49:17;71.59;45.63;84.86;;
66888;Laerm;53798;51.680;5.976;2022-12-15T07:51:44;70.75;45.25;83.09;;
66888;Laerm;53798;51.680;5.976;2022-12-15T07:54:12;70.81;44.06;82.16;;
66888;Laerm;53798;51.680;5.976;2022-12-15T07:56:41;70.40;45.16;84.16;;
66888;Laerm;53798;51.680;5.976;2022-12-15T07:59:08;71.83;52.87;82.23;;
66888;Laerm;53798;51.680;5.976;2022-12-15T08:01:35;70.09;48.37;81.50;;
66888;Laerm;53798;51.680;5.976;2022-12-15T08:04:03;70.47;45.14;83.17;;
66888;Laerm;53798;51.680;5.976;2022-12-15T08:06:31;69.35;45.75;86.20;;
66888;Laerm;53798;51.680;5.976;2022-12-15T08:08:58;70.90;45.35;80.86;;
66888;Laerm;53798;51.680;5.976;2022-12-15T08:11:25;69.49;48.44;82.64;;
66888;Laerm;53798;51.680;5.976;2022-12-15T08:13:52;72.28;52.39;84.58;;
66888;Laerm;53798;51.680;5.976;2022-12-15T08:16:31;73.01;48.15;84.90;;
66888;Laerm;53798;51.680;5.976;2022-12-15T08:19:01;72.08;45.07;86.84;;
66888;Laerm;53798;51.680;5.976;2022-12-15T08:21:30;67.72;45.79;81.03;;
66888;Laerm;53798;51.680;5.976;2022-12-15T08:23:58;59.60;44.45;74.46;;
66888;Laerm;53798;51.680;5.976;2022-12-15T08:26:27;68.70;44.92;82.49;;
66888;Laerm;53798;51.680;5.976;2022-12-15T08:29:01;68.80;44.95;82.05;;
66888;Laerm;53798;51.680;5.976;2022-12-15T08:31:51;70.94;43.98;83.65;;
66888;Laerm;53798;51.680;5.976;2022-12-15T08:34:19;70.05;46.49;80.56;;
66888;Laerm;53798;51.680;5.976;2022-12-15T08:36:46;68.82;45.99;80.77;;
66888;Laerm;53798;51.680;5.976;2022-12-15T08:39:13;70.09;51.69;83.88;;
66888;Laerm;53798;51.680;5.976;2022-12-15T08:41:40;70.03;47.52;82.21;;
66888;Laerm;53798;51.680;5.976;2022-12-15T08:44:08;69.31;46.24;81.53;;
66888;Laerm;53798;51.680;5.976;2022-12-15T08:46:36;69.96;44.04;83.69;;
66888;Laerm;53798;51.680;5.976;2022-12-15T08:49:03;67.42;45.13;80.75;;
66888;Laerm;53798;51.680;5.976;2022-12-15T08:51:32;69.07;47.59;84.28;;
66888;Laerm;53798;51.680;5.976;2022-12-15T08:53:59;70.20;46.55;82.69;;
66888;Laerm;53798;51.680;5.976;2022-12-15T08:56:28;67.63;45.43;81.05;;
66888;Laerm;53798;51.680;5.976;2022-12-15T08:58:59;71.01;48.26;84.10;;
66888;Laerm;53798;51.680;5.976;2022-12-15T09:01:30;70.46;46.87;82.86;;
66888;Laerm;53798;51.680;5.976;2022-12-15T09:03:58;70.99;48.20;82.27;;
66888;Laerm;53798;51.680;5.976;2022-12-15T09:06:33;69.69;44.64;82.94;;
66888;Laerm;53798;51.680;5.976;2022-12-15T09:09:04;67.63;46.03;80.33;;
66888;Laerm;53798;51.680;5.976;2022-12-15T09:11:33;71.40;48.30;82.59;;
66888;Laerm;53798;51.680;5.976;2022-12-15T09:14:01;69.21;45.00;81.73;;
66888;Laerm;53798;51.680;5.976;2022-12-15T09:16:29;71.81;45.69;85.98;;
66888;Laerm;53798;51.680;5.976;2022-12-15T09:18:58;70.05;44.84;84.49;;
66888;Laerm;53798;51.680;5.976;2022-12-15T09:21:29;69.34;45.28;81.86;;
66888;Laerm;53798;51.680;5.976;2022-12-15T09:23:59;72.28;46.88;83.19;;
66888;Laerm;53798;51.680;5.976;2022-12-15T09:26:33;68.79;46.83;83.18;;
66888;Laerm;53798;51.680;5.976;2022-12-15T09:29:00;70.96;44.73;83.73;;
66888;Laerm;53798;51.680;5.976;2022-12-15T09:31:31;69.74;44.40;82.54;;
66888;Laerm;53798;51.680;5.976;2022-12-15T09:33:59;71.24;44.24;85.60;;
66888;Laerm;53798;51.680;5.976;2022-12-15T09:36:28;70.05;44.39;82.02;;
66888;Laerm;53798;51.680;5.976;2022-12-15T09:38:56;66.89;43.70;80.07;;
66888;Laerm;53798;51.680;5.976;2022-12-15T09:41:27;68.36;43.84;80.96;;
66888;Laerm;53798;51.680;5.976;2022-12-15T09:43:59;70.36;45.40;82.89;;
66888;Laerm;53798;51.680;5.976;2022-12-15T09:49:18;72.22;53.52;82.99;;
66888;Laerm;53798;51.680;5.976;2022-12-15T09:51:59;68.79;44.26;82.00;;
66888;Laerm;53798;51.680;5.976;2022-12-15T09:54:37;68.58;48.98;80.30;;
66888;Laerm;53798;51.680;5.976;2022-12-15T09:57:36;68.08;43.41;80.00;;
66888;Laerm;53798;51.680;5.976;2022-12-15T10:06:08;67.35;42.23;80.46;;
66888;Laerm;53798;51.680;5.976;2022-12-15T10:09:19;68.33;43.39;83.10;;
66888;Laerm;53798;51.680;5.976;2022-12-15T10:14:43;69.83;43.78;83.00;;
66888;Laerm;53798;51.680;5.976;2022-12-15T10:17:24;71.24;45.76;83.93;;
66888;Laerm;53798;51.680;5.976;2022-12-15T10:20:18;68.86;46.61;82.44;;
66888;Laerm;53798;51.680;5.976;2022-12-15T10:22:47;72.45;47.52;84.87;;
66888;Laerm;53798;51.680;5.976;2022-12-15T10:25:22;71.29;44.20;84.98;;
66888;Laerm;53798;51.680;5.976;2022-12-15T10:30:57;70.26;43.47;82.38;;
66888;Laerm;53798;51.680;5.976;2022-12-15T10:33:34;69.84;48.71;81.89;;
66888;Laerm;53798;51.680;5.976;2022-12-15T10:36:11;69.05;42.99;81.21;;
66888;Laerm;53798;51.680;5.976;2022-12-15T10:38:41;68.64;47.49;83.75;;
66888;Laerm;53798;51.680;5.976;2022-12-15T10:41:14;71.43;53.59;83.69;;
66888;Laerm;53798;51.680;5.976;2022-12-15T10:43:45;71.50;55.41;84.91;;
66888;Laerm;53798;51.680;5.976;2022-12-15T10:46:22;69.51;45.08;81.92;;
66888;Laerm;53798;51.680;5.976;2022-12-15T10:48:56;68.84;47.05;80.47;;
66888;Laerm;53798;51.680;5.976;2022-12-15T10:51:56;67.97;44.80;82.57;;
66888;Laerm;53798;51.680;5.976;2022-12-15T10:54:30;73.23;43.69;84.50;;
66888;Laerm;53798;51.680;5.976;2022-12-15T10:57:19;69.25;50.76;80.85;;
66888;Laerm;53798;51.680;5.976;2022-12-15T10:59:47;71.77;50.61;83.83;;
66888;Laerm;53798;51.680;5.976;2022-12-15T11:05:00;71.40;55.42;83.03;;
66888;Laerm;53798;51.680;5.976;2022-12-15T11:07:40;71.31;53.29;81.48;;
66888;Laerm;53798;51.680;5.976;2022-12-15T11:10:31;67.27;52.58;79.50;;
66888;Laerm;53798;51.680;5.976;2022-12-15T11:13:21;71.60;46.35;84.75;;
66888;Laerm;53798;51.680;5.976;2022-12-15T11:15:53;69.67;43.51;81.93;;
66888;Laerm;53798;51.680;5.976;2022-12-15T11:31:52;72.59;53.29;83.58;;
66888;Laerm;53798;51.680;5.976;2022-12-15T11:34:25;70.58;42.38;82.82;;
66888;Laerm;53798;51.680;5.976;2022-12-15T11:37:44;69.94;46.03;84.14;;
66888;Laerm;53798;51.680;5.976;2022-12-15T11:40:35;71.98;43.94;84.65;;
66888;Laerm;53798;51.680;5.976;2022-12-15T11:43:25;70.05;47.49;81.96;;
66888;Laerm;53798;51.680;5.976;2022-12-15T11:46:23;70.41;44.27;83.94;;
66888;Laerm;53798;51.680;5.976;2022-12-15T11:56:07;71.10;45.77;84.22;;
66888;Laerm;53798;51.680;5.976;2022-12-15T12:07:49;69.13;44.47;83.23;;
66888;Laerm;53798;51.680;5.976;2022-12-15T12:11:02;70.04;50.87;80.59;;
66888;Laerm;53798;51.680;5.976;2022-12-15T12:17:01;68.92;46.03;83.56;;
66888;Laerm;53798;51.680;5.976;2022-12-15T12:19:53;69.80;47.70;81.66;;
66888;Laerm;53798;51.680;5.976;2022-12-15T12:22:30;68.96;43.65;80.93;;
66888;Laerm;53798;51.680;5.976;2022-12-15T12:27:57;71.40;49.12;82.32;;
66888;Laerm;53798;51.680;5.976;2022-12-15T12:30:39;69.86;43.51;83.66;;
66888;Laerm;53798;51.680;5.976;2022-12-15T12:35:56;68.49;45.63;81.13;;
66888;Laerm;53798;51.680;5.976;2022-12-15T12:38:34;70.74;47.40;81.06;;
66888;Laerm;53798;51.680;5.976;2022-12-15T12:41:39;70.55;47.14;84.43;;
66888;Laerm;53798;51.680;5.976;2022-12-15T12:44:37;69.44;43.15;81.55;;
66888;Laerm;53798;51.680;5.976;2022-12-15T12:47:24;71.26;45.92;82.64;;
66888;Laerm;53798;51.680;5.976;2022-12-15T12:50:02;71.63;48.16;81.62;;
66888;Laerm;53798;51.680;5.976;2022-12-15T12:52:35;70.51;48.22;82.21;;
66888;Laerm;53798;51.680;5.976;2022-12-15T12:55:19;69.98;43.81;83.26;;
66888;Laerm;53798;51.680;5.976;2022-12-15T12:57:49;71.95;43.67;85.03;;
66888;Laerm;53798;51.680;5.976;2022-12-15T13:00:29;70.81;42.34;82.27;;
66888;Laerm;53798;51.680;5.976;2022-12-15T13:03:19;68.68;42.72;81.62;;
66888;Laerm;53798;51.680;5.976;2022-12-15T13:05:49;73.85;53.34;84.59;;
66888;Laerm;53798;51.680;5.976;2022-12-15T13:08:43;71.93;47.50;82.27;;
66888;Laerm;53798;51.680;5.976;2022-12-15T13:14:20;71.92;42.12;82.88;;
66888;Laerm;53798;51.680;5.976;2022-12-15T13:17:21;72.13;45.90;83.97;;
66888;Laerm;53798;51.680;5.976;2022-12-15T13:20:30;72.46;42.36;85.54;;
66888;Laerm;53798;51.680;5.976;2022-12-15T13:45:09;67.82;48.79;80.12;;
66888;Laerm;53798;51.680;5.976;2022-12-15T13:47:39;69.25;46.34;82.03;;
66888;Laerm;53798;51.680;5.976;2022-12-15T13:50:19;71.30;51.43;83.08;;
66888;Laerm;53798;51.680;5.976;2022-12-15T13:52:54;71.25;50.84;82.60;;
66888;Laerm;53798;51.680;5.976;2022-12-15T13:55:56;69.63;44.26;85.26;;
66888;Laerm;53798;51.680;5.976;2022-12-15T13:58:30;70.04;48.41;82.87;;
66888;Laerm;53798;51.680;5.976;2022-12-15T14:01:01;69.04;46.79;80.91;;
66888;Laerm;53798;51.680;5.976;2022-12-15T14:03:29;67.55;45.07;80.28;;
66888;Laerm;53798;51.680;5.976;2022-12-15T14:05:58;71.48;50.77;82.73;;
66888;Laerm;53798;51.680;5.976;2022-12-15T14:08:29;71.50;47.81;83.53;;
66888;Laerm;53798;51.680;5.976;2022-12-15T14:10:59;71.60;47.79;84.87;;
66888;Laerm;53798;51.680;5.976;2022-12-15T14:13:47;69.98;46.90;82.80;;
66888;Laerm;53798;51.680;5.976;2022-12-15T14:16:21;68.08;44.11;80.33;;
66888;Laerm;53798;51.680;5.976;2022-12-15T14:19:24;70.30;44.54;82.25;;
66888;Laerm;53798;51.680;5.976;2022-12-15T14:21:57;70.89;46.04;81.74;;
66888;Laerm;53798;51.680;5.976;2022-12-15T14:24:32;70.33;46.60;82.25;;
66888;Laerm;53798;51.680;5.976;2022-12-15T14:27:06;70.61;47.50;82.91;;
66888;Laerm;53798;51.680;5.976;2022-12-15T14:29:33;72.48;45.58;87.38;;
66888;Laerm;53798;51.680;5.976;2022-12-15T14:32:01;70.97;50.23;83.27;;
66888;Laerm;53798;51.680;5.976;2022-12-15T14:34:34;68.23;43.37;82.47;;
66888;Laerm;53798;51.680;5.976;2022-12-15T14:37:11;70.38;44.69;82.38;;
66888;Laerm;53798;51.680;5.976;2022-12-15T14:39:46;69.21;48.72;81.57;;
66888;Laerm;53798;51.680;5.976;2022-12-15T14:42:26;70.75;50.33;81.66;;
66888;Laerm;53798;51.680;5.976;2022-12-15T14:44:55;70.52;46.09;83.78;;
66888;Laerm;53798;51.680;5.976;2022-12-15T14:47:28;72.33;50.93;84.48;;
66888;Laerm;53798;51.680;5.976;2022-12-15T14:50:02;71.00;49.93;82.97;;
66888;Laerm;53798;51.680;5.976;2022-12-15T14:52:35;73.30;51.58;85.74;;
66888;Laerm;53798;51.680;5.976;2022-12-15T14:57:51;71.03;44.57;81.01;;
66888;Laerm;53798;51.680;5.976;2022-12-15T15:00:35;70.09;45.07;82.47;;
66888;Laerm;53798;51.680;5.976;2022-12-15T15:06:04;73.29;52.41;88.00;;
66888;Laerm;53798;51.680;5.976;2022-12-15T15:08:41;72.13;50.00;81.78;;
66888;Laerm;53798;51.680;5.976;2022-12-15T15:11:31;72.12;48.10;83.82;;
66888;Laerm;53798;51.680;5.976;2022-12-15T15:14:09;69.25;47.79;79.55;;
66888;Laerm;53798;51.680;5.976;2022-12-15T15:16:37;72.92;47.66;85.41;;
66888;Laerm;53798;51.680;5.976;2022-12-15T15:19:06;72.49;54.57;82.28;;
66888;Laerm;53798;51.680;5.976;2022-12-15T15:21:35;72.58;46.40;86.62;;
66888;Laerm;53798;51.680;5.976;2022-12-15T15:24:22;70.96;48.12;83.12;;
66888;Laerm;53798;51.680;5.976;2022-12-15T15:26:51;68.26;43.56;83.80;;
66888;Laerm;53798;51.680;5.976;2022-12-15T15:32:15;70.28;50.68;79.80;;
66888;Laerm;53798;51.680;5.976;2022-12-15T15:34:43;72.02;53.17;84.61;;
66888;Laerm;53798;51.680;5.976;2022-12-15T15:37:20;72.67;53.74;82.44;;
66888;Laerm;53798;51.680;5.976;2022-12-15T15:39:54;71.85;46.99;84.40;;
66888;Laerm;53798;51.680;5.976;2022-12-15T15:42:22;73.47;56.03;82.02;;
66888;Laerm;53798;51.680;5.976;2022-12-15T15:44:57;71.19;47.84;84.15;;
66888;Laerm;53798;51.680;5.976;2022-12-15T15:47:25;70.56;50.87;84.17;;
66888;Laerm;53798;51.680;5.976;2022-12-15T15:49:57;70.15;50.23;81.37;;
66888;Laerm;53798;51.680;5.976;2022-12-15T15:52:28;70.06;48.07;81.30;;
66888;Laerm;53798;51.680;5.976;2022-12-15T15:54:57;71.05;50.34;82.73;;
66888;Laerm;53798;51.680;5.976;2022-12-15T15:57:25;72.89;51.95;83.21;;
66888;Laerm;53798;51.680;5.976;2022-12-15T15:59:52;71.67;45.14;81.83;;
66888;Laerm;53798;51.680;5.976;2022-12-15T16:02:19;73.07;52.94;81.64;;
66888;Laerm;53798;51.680;5.976;2022-12-15T16:04:48;73.89;50.90;84.61;;
66888;Laerm;53798;51.680;5.976;2022-12-15T16:07:23;72.31;55.36;84.68;;
66888;Laerm;53798;51.680;5.976;2022-12-15T16:09:53;72.97;51.35;83.56;;
66888;Laerm;53798;51.680;5.976;2022-12-15T16:12:29;71.31;48.05;82.25;;
66888;Laerm;53798;51.680;5.976;2022-12-15T16:14:57;70.86;45.87;82.04;;
66888;Laerm;53798;51.680;5.976;2022-12-15T16:17:24;70.90;44.16;83.57;;
66888;Laerm;53798;51.680;5.976;2022-12-15T16:19:51;72.77;50.59;84.04;;
66888;Laerm;53798;51.680;5.976;2022-12-15T16:22:20;72.24;47.31;84.57;;